sensor_id;sensor_type;location;lat;lon;timestamp;pressure;altitude;pressure_sealevel;temperature;humidity
56894;BME280;43392;50.078;13.704;2023-12-07T00:02:19;97003.00;;;1.95;89.23
56894;BME280;43392;50.078;13.704;2023-12-07T00:04:47;96998.13;;;1.92;88.81
56894;BME280;43392;50.078;13.704;2023-12-07T00:07:13;96997.56;;;1.90;88.71
56894;BME280;43392;50.078;13.704;2023-12-07T00:09:40;97006.06;;;1.92;89.05
56894;BME280;43392;50.078;13.704;2023-12-07T00:12:07;97002.59;;;1.91;88.56
56894;BME280;43392;50.078;13.704;2023-12-07T00:14:33;97001.59;;;1.92;88.63
56894;BME280;43392;50.078;13.704;2023-12-07T00:17:00;96997.31;;;1.91;88.45
56894;BME280;43392;50.078;13.704;2023-12-07T00:19:27;97002.59;;;1.91;88.24
56894;BME280;43392;50.078;13.704;2023-12-07T00:21:55;97002.41;;;1.93;88.30
56894;BME280;43392;50.078;13.704;2023-12-07T00:24:21;97002.19;;;1.94;88.33
56894;BME280;43392;50.078;13.704;2023-12-07T00:26:48;97002.19;;;1.94;88.18
56894;BME280;43392;50.078;13.704;2023-12-07T00:29:14;97013.56;;;1.95;88.10
56894;BME280;43392;50.078;13.704;2023-12-07T00:31:41;97010.94;;;1.95;88.09
56894;BME280;43392;50.078;13.704;2023-12-07T00:34:09;97015.97;;;1.96;87.92
56894;BME280;43392;50.078;13.704;2023-12-07T00:36:36;97009.69;;;1.97;87.77
56894;BME280;43392;50.078;13.704;2023-12-07T00:39:06;97008.88;;;1.97;87.97
56894;BME280;43392;50.078;13.704;2023-12-07T00:41:34;97016.59;;;1.98;87.85
56894;BME280;43392;50.078;13.704;2023-12-07T00:44:00;97011.31;;;1.98;87.76
56894;BME280;43392;50.078;13.704;2023-12-07T00:46:27;97016.78;;;1.97;87.50
56894;BME280;43392;50.078;13.704;2023-12-07T00:48:54;97017.47;;;1.92;87.76
56894;BME280;43392;50.078;13.704;2023-12-07T00:51:21;97014.81;;;1.92;87.77
56894;BME280;43392;50.078;13.704;2023-12-07T00:53:47;97022.50;;;1.94;87.61
56894;BME280;43392;50.078;13.704;2023-12-07T00:56:15;97020.69;;;1.94;87.51
56894;BME280;43392;50.078;13.704;2023-12-07T00:58:42;97018.47;;;1.91;87.40
56894;BME280;43392;50.078;13.704;2023-12-07T01:01:08;97020.53;;;1.89;87.46
56894;BME280;43392;50.078;13.704;2023-12-07T01:03:35;97027.66;;;1.89;87.46
56894;BME280;43392;50.078;13.704;2023-12-07T01:06:02;97035.38;;;1.90;87.77
56894;BME280;43392;50.078;13.704;2023-12-07T01:08:28;97040.28;;;1.87;87.41
56894;BME280;43392;50.078;13.704;2023-12-07T01:10:55;97035.22;;;1.85;87.42
56894;BME280;43392;50.078;13.704;2023-12-07T01:13:23;97038.09;;;1.84;87.61
56894;BME280;43392;50.078;13.704;2023-12-07T01:15:50;97035.00;;;1.87;87.65
56894;BME280;43392;50.078;13.704;2023-12-07T01:18:16;97041.91;;;1.88;87.39
56894;BME280;43392;50.078;13.704;2023-12-07T01:20:43;97031.56;;;1.86;87.46
56894;BME280;43392;50.078;13.704;2023-12-07T01:23:09;97040.13;;;1.82;87.31
56894;BME280;43392;50.078;13.704;2023-12-07T01:25:36;97046.72;;;1.73;87.56
56894;BME280;43392;50.078;13.704;2023-12-07T01:28:03;97044.97;;;1.67;87.80
56894;BME280;43392;50.078;13.704;2023-12-07T01:30:31;97049.44;;;1.66;87.90
56894;BME280;43392;50.078;13.704;2023-12-07T01:32:58;97048.19;;;1.69;88.11
56894;BME280;43392;50.078;13.704;2023-12-07T01:35:25;97055.31;;;1.68;87.90
56894;BME280;43392;50.078;13.704;2023-12-07T01:37:51;97050.03;;;1.68;87.88
56894;BME280;43392;50.078;13.704;2023-12-07T01:40:18;97053.84;;;1.72;87.85
56894;BME280;43392;50.078;13.704;2023-12-07T01:42:49;97061.78;;;1.72;88.18
56894;BME280;43392;50.078;13.704;2023-12-07T01:45:16;97062.00;;;1.71;87.99
56894;BME280;43392;50.078;13.704;2023-12-07T01:47:44;97064.22;;;1.74;88.21
56894;BME280;43392;50.078;13.704;2023-12-07T01:50:13;97066.88;;;1.74;87.87
56894;BME280;43392;50.078;13.704;2023-12-07T01:52:44;97073.56;;;1.76;87.99
56894;BME280;43392;50.078;13.704;2023-12-07T01:55:11;97073.75;;;1.75;87.97
56894;BME280;43392;50.078;13.704;2023-12-07T01:57:38;97068.84;;;1.78;87.83
56894;BME280;43392;50.078;13.704;2023-12-07T02:00:07;97063.13;;;1.81;87.86
56894;BME280;43392;50.078;13.704;2023-12-07T02:02:34;97078.53;;;1.84;87.98
56894;BME280;43392;50.078;13.704;2023-12-07T02:05:04;97078.34;;;1.86;87.93
56894;BME280;43392;50.078;13.704;2023-12-07T02:07:31;97076.28;;;1.88;87.91
56894;BME280;43392;50.078;13.704;2023-12-07T02:09:58;97072.41;;;1.90;87.67
56894;BME280;43392;50.078;13.704;2023-12-07T02:12:24;97075.63;;;1.92;87.65
56894;BME280;43392;50.078;13.704;2023-12-07T02:14:55;97083.34;;;1.94;87.39
56894;BME280;43392;50.078;13.704;2023-12-07T02:17:28;97078.88;;;1.94;87.38
56894;BME280;43392;50.078;13.704;2023-12-07T02:20:03;97085.56;;;1.97;87.42
56894;BME280;43392;50.078;13.704;2023-12-07T02:22:36;97085.56;;;1.97;87.22
56894;BME280;43392;50.078;13.704;2023-12-07T02:25:06;97079.25;;;1.98;87.11
56894;BME280;43392;50.078;13.704;2023-12-07T02:27:39;97082.72;;;1.98;87.49
56894;BME280;43392;50.078;13.704;2023-12-07T02:30:07;97079.84;;;2.00;87.26
56894;BME280;43392;50.078;13.704;2023-12-07T02:32:34;97085.94;;;2.00;87.44
56894;BME280;43392;50.078;13.704;2023-12-07T02:35:01;97083.50;;;1.99;87.33
56894;BME280;43392;50.078;13.704;2023-12-07T02:37:30;97091.66;;;1.97;87.13
56894;BME280;43392;50.078;13.704;2023-12-07T02:39:58;97089.00;;;1.97;87.05
56894;BME280;43392;50.078;13.704;2023-12-07T02:42:26;97087.38;;;1.96;87.06
56894;BME280;43392;50.078;13.704;2023-12-07T02:44:54;97083.34;;;1.94;86.88
56894;BME280;43392;50.078;13.704;2023-12-07T02:47:21;97091.09;;;1.89;87.00
56894;BME280;43392;50.078;13.704;2023-12-07T02:49:48;97093.63;;;1.84;87.04
56894;BME280;43392;50.078;13.704;2023-12-07T02:52:14;97097.28;;;1.83;87.36
56894;BME280;43392;50.078;13.704;2023-12-07T02:54:41;97099.50;;;1.86;87.41
56894;BME280;43392;50.078;13.704;2023-12-07T02:57:08;97104.31;;;1.89;87.29
56894;BME280;43392;50.078;13.704;2023-12-07T02:59:34;97107.59;;;1.91;87.24
56894;BME280;43392;50.078;13.704;2023-12-07T03:02:03;97107.59;;;1.91;87.29
56894;BME280;43392;50.078;13.704;2023-12-07T03:04:29;97108.25;;;1.86;87.30
56894;BME280;43392;50.078;13.704;2023-12-07T03:06:56;97116.31;;;1.91;87.28
56894;BME280;43392;50.078;13.704;2023-12-07T03:09:23;97113.47;;;1.93;87.21
56894;BME280;43392;50.078;13.704;2023-12-07T03:11:50;97112.41;;;1.94;87.06
56894;BME280;43392;50.078;13.704;2023-12-07T03:14:16;97116.94;;;1.93;87.01
56894;BME280;43392;50.078;13.704;2023-12-07T03:16:44;97115.06;;;1.94;87.02
56894;BME280;43392;50.078;13.704;2023-12-07T03:19:12;97120.34;;;1.94;87.15
56894;BME280;43392;50.078;13.704;2023-12-07T03:21:39;97118.75;;;1.93;87.10
56894;BME280;43392;50.078;13.704;2023-12-07T03:24:07;97119.34;;;1.95;87.14
56894;BME280;43392;50.078;13.704;2023-12-07T03:26:33;97122.41;;;1.92;86.96
56894;BME280;43392;50.078;13.704;2023-12-07T03:29:00;97130.56;;;1.90;86.99
56894;BME280;43392;50.078;13.704;2023-12-07T03:31:27;97123.22;;;1.92;87.07
56894;BME280;43392;50.078;13.704;2023-12-07T03:33:54;97117.94;;;1.92;87.12
56894;BME280;43392;50.078;13.704;2023-12-07T03:36:22;97117.94;;;1.92;87.00
56894;BME280;43392;50.078;13.704;2023-12-07T03:38:49;97126.69;;;1.93;86.88
56894;BME280;43392;50.078;13.704;2023-12-07T03:41:16;97130.56;;;1.90;86.88
56894;BME280;43392;50.078;13.704;2023-12-07T03:43:42;97130.78;;;1.89;87.27
56894;BME280;43392;50.078;13.704;2023-12-07T03:46:09;97132.63;;;1.88;87.21
56894;BME280;43392;50.078;13.704;2023-12-07T03:48:36;97130.63;;;1.84;87.38
56894;BME280;43392;50.078;13.704;2023-12-07T03:51:03;97139.81;;;1.81;87.52
56894;BME280;43392;50.078;13.704;2023-12-07T03:53:31;97137.34;;;1.80;87.55
56894;BME280;43392;50.078;13.704;2023-12-07T03:55:58;97131.47;;;1.78;87.69
56894;BME280;43392;50.078;13.704;2023-12-07T03:58:24;97134.72;;;1.80;87.99
56894;BME280;43392;50.078;13.704;2023-12-07T04:00:51;97143.25;;;1.82;87.95
56894;BME280;43392;50.078;13.704;2023-12-07T04:03:18;97142.81;;;1.85;87.98
56894;BME280;43392;50.078;13.704;2023-12-07T04:05:44;97148.31;;;1.83;87.78
56894;BME280;43392;50.078;13.704;2023-12-07T04:08:11;97148.09;;;1.85;88.11
56894;BME280;43392;50.078;13.704;2023-12-07T04:10:39;97147.09;;;1.86;88.29
56894;BME280;43392;50.078;13.704;2023-12-07T04:13:06;97147.28;;;1.84;88.13
56894;BME280;43392;50.078;13.704;2023-12-07T04:15:32;97152.56;;;1.84;88.17
56894;BME280;43392;50.078;13.704;2023-12-07T04:17:59;97151.16;;;1.82;88.39
56894;BME280;43392;50.078;13.704;2023-12-07T04:20:25;97159.09;;;1.82;88.39
56894;BME280;43392;50.078;13.704;2023-12-07T04:22:52;97157.91;;;1.78;88.37
56894;BME280;43392;50.078;13.704;2023-12-07T04:25:19;97157.34;;;1.76;88.79
56894;BME280;43392;50.078;13.704;2023-12-07T04:27:47;97156.91;;;1.79;88.85
56894;BME280;43392;50.078;13.704;2023-12-07T04:30:13;97160.34;;;1.79;89.18
56894;BME280;43392;50.078;13.704;2023-12-07T04:32:40;97162.38;;;1.84;89.17
56894;BME280;43392;50.078;13.704;2023-12-07T04:35:07;97160.91;;;1.88;89.51
56894;BME280;43392;50.078;13.704;2023-12-07T04:37:34;97171.25;;;1.89;89.46
56894;BME280;43392;50.078;13.704;2023-12-07T04:40:00;97179.78;;;1.91;89.43
56894;BME280;43392;50.078;13.704;2023-12-07T04:42:28;97166.34;;;1.93;89.47
56894;BME280;43392;50.078;13.704;2023-12-07T04:44:56;97169.59;;;1.95;89.47
56894;BME280;43392;50.078;13.704;2023-12-07T04:47:22;97168.34;;;1.97;89.35
56894;BME280;43392;50.078;13.704;2023-12-07T04:49:49;97170.75;;;1.99;89.07
56894;BME280;43392;50.078;13.704;2023-12-07T04:52:15;97171.38;;;2.01;89.30
56894;BME280;43392;50.078;13.704;2023-12-07T04:54:42;97175.63;;;2.02;89.03
56894;BME280;43392;50.078;13.704;2023-12-07T04:57:09;97183.34;;;2.03;88.84
56894;BME280;43392;50.078;13.704;2023-12-07T04:59:35;97175.19;;;2.05;89.05
56894;BME280;43392;50.078;13.704;2023-12-07T05:02:03;97180.50;;;2.05;88.85
56894;BME280;43392;50.078;13.704;2023-12-07T05:04:30;97182.72;;;2.08;88.83
56894;BME280;43392;50.078;13.704;2023-12-07T05:06:58;97186.38;;;2.07;88.25
56894;BME280;43392;50.078;13.704;2023-12-07T05:09:25;97189.25;;;2.06;88.23
56894;BME280;43392;50.078;13.704;2023-12-07T05:11:52;97181.50;;;2.04;88.17
56894;BME280;43392;50.078;13.704;2023-12-07T05:14:18;97176.03;;;2.06;88.08
56894;BME280;43392;50.078;13.704;2023-12-07T05:16:45;97178.66;;;2.06;88.13
56894;BME280;43392;50.078;13.704;2023-12-07T05:19:14;97183.72;;;2.07;88.06
56894;BME280;43392;50.078;13.704;2023-12-07T05:21:41;97185.78;;;2.05;87.69
56894;BME280;43392;50.078;13.704;2023-12-07T05:24:08;97186.22;;;2.02;87.78
56894;BME280;43392;50.078;13.704;2023-12-07T05:26:34;97185.03;;;1.98;87.79
56894;BME280;43392;50.078;13.704;2023-12-07T05:29:01;97185.69;;;1.93;87.83
56894;BME280;43392;50.078;13.704;2023-12-07T05:31:28;97197.50;;;1.91;87.87
56894;BME280;43392;50.078;13.704;2023-12-07T05:33:55;97195.63;;;1.91;87.89
56894;BME280;43392;50.078;13.704;2023-12-07T05:36:23;97194.84;;;1.91;87.75
56894;BME280;43392;50.078;13.704;2023-12-07T05:38:49;97194.84;;;1.91;87.80
56894;BME280;43392;50.078;13.704;2023-12-07T05:41:16;97202.38;;;1.87;87.96
56894;BME280;43392;50.078;13.704;2023-12-07T05:43:42;97195.28;;;1.88;87.86
56894;BME280;43392;50.078;13.704;2023-12-07T05:46:09;97190.97;;;1.93;88.07
56894;BME280;43392;50.078;13.704;2023-12-07T05:48:36;97204.56;;;1.97;88.00
56894;BME280;43392;50.078;13.704;2023-12-07T05:51:03;97207.00;;;1.98;87.91
56894;BME280;43392;50.078;13.704;2023-12-07T05:53:31;97211.25;;;1.99;87.76
56894;BME280;43392;50.078;13.704;2023-12-07T05:55:58;97211.84;;;2.01;87.81
56894;BME280;43392;50.078;13.704;2023-12-07T05:58:25;97217.94;;;2.02;87.67
56894;BME280;43392;50.078;13.704;2023-12-07T06:00:52;97213.47;;;2.03;87.75
56894;BME280;43392;50.078;13.704;2023-12-07T06:03:18;97215.88;;;2.04;87.67
56894;BME280;43392;50.078;13.704;2023-12-07T06:05:45;97223.81;;;2.04;87.67
56894;BME280;43392;50.078;13.704;2023-12-07T06:08:12;97219.34;;;2.05;87.61
56894;BME280;43392;50.078;13.704;2023-12-07T06:10:40;97224.41;;;2.06;87.55
56894;BME280;43392;50.078;13.704;2023-12-07T06:13:06;97223.41;;;2.07;87.55
56894;BME280;43392;50.078;13.704;2023-12-07T06:15:33;97219.13;;;2.06;87.34
56894;BME280;43392;50.078;13.704;2023-12-07T06:18:00;97227.88;;;2.07;87.67
56894;BME280;43392;50.078;13.704;2023-12-07T06:20:26;97225.22;;;2.07;87.52
56894;BME280;43392;50.078;13.704;2023-12-07T06:22:53;97231.09;;;2.09;87.54
56894;BME280;43392;50.078;13.704;2023-12-07T06:25:20;97230.09;;;2.10;87.60
56894;BME280;43392;50.078;13.704;2023-12-07T06:27:48;97220.31;;;2.10;87.62
56894;BME280;43392;50.078;13.704;2023-12-07T06:30:14;97221.94;;;2.11;87.69
56894;BME280;43392;50.078;13.704;2023-12-07T06:32:41;97229.28;;;2.09;87.43
56894;BME280;43392;50.078;13.704;2023-12-07T06:35:09;97239.66;;;2.11;87.59
56894;BME280;43392;50.078;13.704;2023-12-07T06:37:37;97242.50;;;2.09;87.63
56894;BME280;43392;50.078;13.704;2023-12-07T06:40:06;97235.81;;;2.07;87.32
56894;BME280;43392;50.078;13.704;2023-12-07T06:42:34;97242.50;;;2.09;87.55
56894;BME280;43392;50.078;13.704;2023-12-07T06:45:03;97232.97;;;2.08;87.55
56894;BME280;43392;50.078;13.704;2023-12-07T06:47:29;97225.66;;;2.03;87.55
56894;BME280;43392;50.078;13.704;2023-12-07T06:49:56;97227.50;;;2.03;87.49
56894;BME280;43392;50.078;13.704;2023-12-07T06:52:22;97236.63;;;2.07;87.61
56894;BME280;43392;50.078;13.704;2023-12-07T06:54:49;97239.84;;;2.09;87.55
56894;BME280;43392;50.078;13.704;2023-12-07T06:57:16;97242.50;;;2.09;87.64
56894;BME280;43392;50.078;13.704;2023-12-07T06:59:42;97237.81;;;2.11;87.66
56894;BME280;43392;50.078;13.704;2023-12-07T07:02:10;97248.19;;;2.13;87.57
56894;BME280;43392;50.078;13.704;2023-12-07T07:04:37;97252.44;;;2.14;87.48
56894;BME280;43392;50.078;13.704;2023-12-07T07:07:03;97254.06;;;2.15;87.47
56894;BME280;43392;50.078;13.704;2023-12-07T07:09:30;97251.19;;;2.16;87.47
56894;BME280;43392;50.078;13.704;2023-12-07T07:11:57;97252.81;;;2.17;87.31
56894;BME280;43392;50.078;13.704;2023-12-07T07:14:23;97260.53;;;2.19;87.33
56894;BME280;43392;50.078;13.704;2023-12-07T07:16:50;97257.69;;;2.20;87.64
56894;BME280;43392;50.078;13.704;2023-12-07T07:19:18;97260.13;;;2.22;87.27
56894;BME280;43392;50.078;13.704;2023-12-07T07:21:45;97271.50;;;2.22;86.99
56894;BME280;43392;50.078;13.704;2023-12-07T07:24:12;97273.19;;;2.17;86.73
56894;BME280;43392;50.078;13.704;2023-12-07T07:26:38;97275.06;;;2.10;86.47
56894;BME280;43392;50.078;13.704;2023-12-07T07:29:05;97277.13;;;2.08;86.62
56894;BME280;43392;50.078;13.704;2023-12-07T07:31:32;97280.56;;;2.08;86.45
56894;BME280;43392;50.078;13.704;2023-12-07T07:33:58;97270.59;;;2.10;86.55
56894;BME280;43392;50.078;13.704;2023-12-07T07:36:26;97277.06;;;2.14;86.56
56894;BME280;43392;50.078;13.704;2023-12-07T07:38:53;97268.31;;;2.14;86.12
56894;BME280;43392;50.078;13.704;2023-12-07T07:41:19;97278.47;;;2.17;86.18
56894;BME280;43392;50.078;13.704;2023-12-07T07:43:46;97278.03;;;2.20;85.95
56894;BME280;43392;50.078;13.704;2023-12-07T07:46:13;97279.69;;;2.14;85.69
56894;BME280;43392;50.078;13.704;2023-12-07T07:48:40;97279.34;;;2.04;85.97
56894;BME280;43392;50.078;13.704;2023-12-07T07:51:07;97276.59;;;1.92;86.05
56894;BME280;43392;50.078;13.704;2023-12-07T07:53:35;97278.41;;;1.92;86.20
56894;BME280;43392;50.078;13.704;2023-12-07T07:56:01;97270.53;;;1.85;86.33
56894;BME280;43392;50.078;13.704;2023-12-07T07:58:28;97292.09;;;1.82;86.56
56894;BME280;43392;50.078;13.704;2023-12-07T08:00:54;97288.06;;;1.80;86.52
56894;BME280;43392;50.078;13.704;2023-12-07T08:03:21;97302.72;;;1.76;86.73
56894;BME280;43392;50.078;13.704;2023-12-07T08:05:48;97296.84;;;1.74;86.78
56894;BME280;43392;50.078;13.704;2023-12-07T08:08:15;97294.19;;;1.74;86.84
56894;BME280;43392;50.078;13.704;2023-12-07T08:10:43;97300.72;;;1.71;86.66
56894;BME280;43392;50.078;13.704;2023-12-07T08:13:10;97299.91;;;1.71;86.81
56894;BME280;43392;50.078;13.704;2023-12-07T08:15:36;97298.06;;;1.71;86.81
56894;BME280;43392;50.078;13.704;2023-12-07T08:18:03;97295.38;;;1.78;87.00
56894;BME280;43392;50.078;13.704;2023-12-07T08:20:30;97294.56;;;1.84;86.93
56894;BME280;43392;50.078;13.704;2023-12-07T08:22:58;97299.81;;;1.90;86.72
56894;BME280;43392;50.078;13.704;2023-12-07T08:25:24;97294.47;;;1.97;86.54
56894;BME280;43392;50.078;13.704;2023-12-07T08:27:52;97295.63;;;2.08;86.51
56894;BME280;43392;50.078;13.704;2023-12-07T08:30:19;97296.97;;;2.17;86.50
56894;BME280;43392;50.078;13.704;2023-12-07T08:32:45;97291.63;;;2.23;86.30
56894;BME280;43392;50.078;13.704;2023-12-07T08:35:12;97296.69;;;2.31;85.98
56894;BME280;43392;50.078;13.704;2023-12-07T08:37:39;97291.78;;;2.35;85.77
56894;BME280;43392;50.078;13.704;2023-12-07T08:40:06;97294.13;;;2.43;85.58
56894;BME280;43392;50.078;13.704;2023-12-07T08:42:35;97296.13;;;2.47;85.44
56894;BME280;43392;50.078;13.704;2023-12-07T08:45:04;97299.81;;;2.46;84.77
56894;BME280;43392;50.078;13.704;2023-12-07T08:47:30;97298.47;;;2.37;84.73
56894;BME280;43392;50.078;13.704;2023-12-07T08:49:57;97300.72;;;2.34;84.82
56894;BME280;43392;50.078;13.704;2023-12-07T08:52:24;97306.19;;;2.39;84.84
56894;BME280;43392;50.078;13.704;2023-12-07T08:54:50;97303.91;;;2.42;84.70
56894;BME280;43392;50.078;13.704;2023-12-07T08:57:17;97309.44;;;2.41;84.36
56894;BME280;43392;50.078;13.704;2023-12-07T08:59:44;97317.78;;;2.38;84.09
56894;BME280;43392;50.078;13.704;2023-12-07T09:02:12;97321.47;;;2.37;83.81
56894;BME280;43392;50.078;13.704;2023-12-07T09:04:39;97323.31;;;2.36;83.87
56894;BME280;43392;50.078;13.704;2023-12-07T09:07:05;97323.09;;;2.38;83.46
56894;BME280;43392;50.078;13.704;2023-12-07T09:09:32;97321.03;;;2.40;83.53
56894;BME280;43392;50.078;13.704;2023-12-07T09:11:59;97321.84;;;2.40;83.30
56894;BME280;43392;50.078;13.704;2023-12-07T09:14:25;97316.94;;;2.44;83.08
56894;BME280;43392;50.078;13.704;2023-12-07T09:16:53;97323.00;;;2.51;83.00
56894;BME280;43392;50.078;13.704;2023-12-07T09:19:21;97310.75;;;2.56;82.55
56894;BME280;43392;50.078;13.704;2023-12-07T09:21:48;97317.88;;;2.56;81.92
56894;BME280;43392;50.078;13.704;2023-12-07T09:24:15;97313.59;;;2.55;81.79
56894;BME280;43392;50.078;13.704;2023-12-07T09:26:42;97318.88;;;2.55;81.69
56894;BME280;43392;50.078;13.704;2023-12-07T09:29:09;97318.53;;;2.51;81.33
56894;BME280;43392;50.078;13.704;2023-12-07T09:31:35;97322.59;;;2.47;81.13
56894;BME280;43392;50.078;13.704;2023-12-07T09:34:02;97328.53;;;2.49;81.45
56894;BME280;43392;50.078;13.704;2023-12-07T09:36:30;97327.88;;;2.54;81.08
56894;BME280;43392;50.078;13.704;2023-12-07T09:38:57;97325.81;;;2.56;80.86
56894;BME280;43392;50.078;13.704;2023-12-07T09:41:23;97319.69;;;2.55;80.79
56894;BME280;43392;50.078;13.704;2023-12-07T09:43:50;97324.56;;;2.58;80.65
56894;BME280;43392;50.078;13.704;2023-12-07T09:46:18;97307.22;;;2.62;80.50
56894;BME280;43392;50.078;13.704;2023-12-07T09:48:48;97319.22;;;2.65;80.11
56894;BME280;43392;50.078;13.704;2023-12-07T09:51:15;97320.44;;;2.62;79.98
56894;BME280;43392;50.078;13.704;2023-12-07T09:53:45;97320.44;;;2.62;79.76
56894;BME280;43392;50.078;13.704;2023-12-07T09:56:14;97316.19;;;2.61;79.88
56894;BME280;43392;50.078;13.704;2023-12-07T09:58:42;97320.03;;;2.65;79.58
56894;BME280;43392;50.078;13.704;2023-12-07T10:01:09;97321.22;;;2.69;79.55
56894;BME280;43392;50.078;13.704;2023-12-07T10:03:39;97315.25;;;2.74;79.45
56894;BME280;43392;50.078;13.704;2023-12-07T10:06:06;97313.44;;;2.75;79.04
56894;BME280;43392;50.078;13.704;2023-12-07T10:08:33;97302.84;;;2.75;78.98
56894;BME280;43392;50.078;13.704;2023-12-07T10:11:06;97311.94;;;2.79;78.92
56894;BME280;43392;50.078;13.704;2023-12-07T10:13:34;97303.66;;;2.75;78.69
56894;BME280;43392;50.078;13.704;2023-12-07T10:16:11;97309.94;;;2.81;78.48
56894;BME280;43392;50.078;13.704;2023-12-07T10:18:39;97304.81;;;2.79;78.02
56894;BME280;43392;50.078;13.704;2023-12-07T10:21:07;97310.50;;;2.83;78.42
56894;BME280;43392;50.078;13.704;2023-12-07T10:23:34;97301.91;;;2.87;78.34
56894;BME280;43392;50.078;13.704;2023-12-07T10:26:01;97308.38;;;2.91;78.19
56894;BME280;43392;50.078;13.704;2023-12-07T10:28:30;97303.91;;;2.92;77.85
56894;BME280;43392;50.078;13.704;2023-12-07T10:30:57;97304.72;;;2.92;77.72
56894;BME280;43392;50.078;13.704;2023-12-07T10:33:25;97299.19;;;2.94;77.78
56894;BME280;43392;50.078;13.704;2023-12-07T10:35:52;97296.53;;;2.94;77.66
56894;BME280;43392;50.078;13.704;2023-12-07T10:38:19;97300.97;;;3.00;77.63
56894;BME280;43392;50.078;13.704;2023-12-07T10:40:46;97295.22;;;3.03;77.13
56894;BME280;43392;50.078;13.704;2023-12-07T10:43:14;97298.47;;;3.05;77.25
56894;BME280;43392;50.078;13.704;2023-12-07T10:45:44;97295.38;;;3.08;77.30
56894;BME280;43392;50.078;13.704;2023-12-07T10:48:11;97300.03;;;3.12;77.24
56894;BME280;43392;50.078;13.704;2023-12-07T10:50:41;97297.75;;;3.16;76.91
56894;BME280;43392;50.078;13.704;2023-12-07T10:53:10;97293.03;;;3.18;76.91
56894;BME280;43392;50.078;13.704;2023-12-07T10:55:42;97290.97;;;3.20;76.91
56894;BME280;43392;50.078;13.704;2023-12-07T10:58:13;97294.22;;;3.22;76.73
56894;BME280;43392;50.078;13.704;2023-12-07T11:00:43;97288.94;;;3.22;76.74
56894;BME280;43392;50.078;13.704;2023-12-07T11:03:14;97299.69;;;3.27;76.43
56894;BME280;43392;50.078;13.704;2023-12-07T11:05:43;97297.81;;;3.27;76.20
56894;BME280;43392;50.078;13.704;2023-12-07T11:08:15;97300.53;;;3.21;76.23
56894;BME280;43392;50.078;13.704;2023-12-07T11:10:47;97297.31;;;3.19;76.08
56894;BME280;43392;50.078;13.704;2023-12-07T11:13:18;97294.13;;;3.10;76.03
56894;BME280;43392;50.078;13.704;2023-12-07T11:15:48;97300.97;;;3.00;75.65
56894;BME280;43392;50.078;13.704;2023-12-07T11:18:15;97289.47;;;2.88;75.78
56894;BME280;43392;50.078;13.704;2023-12-07T11:20:42;97293.56;;;2.84;75.84
56894;BME280;43392;50.078;13.704;2023-12-07T11:23:11;97300.78;;;2.77;75.76
56894;BME280;43392;50.078;13.704;2023-12-07T11:25:38;97296.38;;;2.71;76.06
56894;BME280;43392;50.078;13.704;2023-12-07T11:28:06;97295.16;;;2.66;76.20
56894;BME280;43392;50.078;13.704;2023-12-07T11:30:35;97292.66;;;2.72;75.96
56894;BME280;43392;50.078;13.704;2023-12-07T11:33:05;97291.59;;;2.79;76.97
56894;BME280;43392;50.078;13.704;2023-12-07T11:35:32;97298.88;;;2.84;76.77
56894;BME280;43392;50.078;13.704;2023-12-07T11:38:03;97292.13;;;2.88;77.22
56894;BME280;43392;50.078;13.704;2023-12-07T11:40:32;97299.84;;;2.89;77.19
56894;BME280;43392;50.078;13.704;2023-12-07T11:42:59;97296.84;;;2.86;77.40
56894;BME280;43392;50.078;13.704;2023-12-07T11:45:39;97297.94;;;2.78;77.30
56894;BME280;43392;50.078;13.704;2023-12-07T11:48:12;97299.75;;;2.78;77.60
56894;BME280;43392;50.078;13.704;2023-12-07T11:51:03;97291.59;;;2.79;77.95
56894;BME280;43392;50.078;13.704;2023-12-07T11:53:31;97284.88;;;2.77;78.00
56894;BME280;43392;50.078;13.704;2023-12-07T11:55:59;97293.06;;;2.75;77.90
56894;BME280;43392;50.078;13.704;2023-12-07T11:58:26;97288.41;;;2.71;78.14
56894;BME280;43392;50.078;13.704;2023-12-07T12:00:53;97289.00;;;2.73;78.31
56894;BME280;43392;50.078;13.704;2023-12-07T12:03:23;97281.06;;;2.73;78.40
56894;BME280;43392;50.078;13.704;2023-12-07T12:05:50;97286.09;;;2.81;78.51
56894;BME280;43392;50.078;13.704;2023-12-07T12:08:16;97280.28;;;2.90;78.62
56894;BME280;43392;50.078;13.704;2023-12-07T12:10:44;97277.34;;;2.98;78.47
56894;BME280;43392;50.078;13.704;2023-12-07T12:13:11;97280.13;;;3.03;78.34
56894;BME280;43392;50.078;13.704;2023-12-07T12:15:38;97284.63;;;3.03;78.26
56894;BME280;43392;50.078;13.704;2023-12-07T12:18:06;97282.34;;;3.06;78.18
56894;BME280;43392;50.078;13.704;2023-12-07T12:20:34;97281.69;;;3.11;78.12
56894;BME280;43392;50.078;13.704;2023-12-07T12:23:01;97284.16;;;3.12;78.30
56894;BME280;43392;50.078;13.704;2023-12-07T12:25:29;97284.72;;;3.14;78.01
56894;BME280;43392;50.078;13.704;2023-12-07T12:27:58;97282.13;;;3.08;77.83
56894;BME280;43392;50.078;13.704;2023-12-07T12:30:26;97288.31;;;3.02;78.04
56894;BME280;43392;50.078;13.704;2023-12-07T12:32:54;97280.66;;;2.94;77.79
56894;BME280;43392;50.078;13.704;2023-12-07T12:35:20;97287.16;;;2.98;78.33
56894;BME280;43392;50.078;13.704;2023-12-07T12:37:49;97285.91;;;3.00;77.88
56894;BME280;43392;50.078;13.704;2023-12-07T12:40:17;97281.97;;;3.03;77.93
56894;BME280;43392;50.078;13.704;2023-12-07T12:42:45;97278.53;;;3.02;77.83
56894;BME280;43392;50.078;13.704;2023-12-07T12:45:12;97280.94;;;3.04;77.83
56894;BME280;43392;50.078;13.704;2023-12-07T12:47:40;97286.47;;;3.02;77.60
56894;BME280;43392;50.078;13.704;2023-12-07T12:50:07;97282.63;;;2.98;77.71
56894;BME280;43392;50.078;13.704;2023-12-07T12:52:34;97284.84;;;3.01;77.76
56894;BME280;43392;50.078;13.704;2023-12-07T12:55:07;97280.38;;;3.02;77.54
56894;BME280;43392;50.078;13.704;2023-12-07T12:57:35;97278.16;;;2.99;77.36
56894;BME280;43392;50.078;13.704;2023-12-07T13:00:04;97269.22;;;2.93;77.62
56894;BME280;43392;50.078;13.704;2023-12-07T13:02:32;97275.94;;;2.96;77.71